Boiling Springs, NC (28017)

11:55 AM EDT on September 02, 2015 (GMT -0400)
Maw's | | Change Station
CLOSE
Current Station
Personal Weather Station
Location: Shelby, NC
Elevation: 818 ft
Nearby Weather Stations

Elev 818 ft 35.27 °N, 81.55 °W | Updated 9 minutes ago

Clear
Clear
86.4 °F
Feels Like 92 °F
N
1.0
Wind Variable Wind from SSW
Gusts 4.0 mph

Today
High -- | Low -- °F
--% Chance of Precip.
Yesterday
High -- | Low -- °F
Precip. -- in
6:59 AM 7:52 PM
Waning Gibbous, 79% visible
Pressure 30.13 in
Visibility 10.0 miles
Clouds Clear
Heat Index 92 °F
Dew Point 71 °F
Humidity 61%
Rainfall 0.00 in
Snow Depth Not available.
UV 7 out of 12
Pollen 8.70 out of 12
Air Quality Not available.
Flu Activity Not available.
METAR KEHO 021458Z AUTO 00000KT 10SM CLR 28/20 A3013 RMK AO2
Pressure 30.13 in
Visibility 10.0 miles
Clouds Clear
Heat Index 92 °F
Dew Point 71 °F
Humidity 61%
Rainfall 0.00 in
Snow Depth Not available.
UV 7 out of 12
Pollen 8.70 out of 12
Air Quality Not available.
Flu Activity Not available.
METAR KEHO 021458Z AUTO 00000KT 10SM CLR 28/20 A3013 RMK AO2

10-Day Weather Forecast

×

Almanac

Astronomy

Sep. 02, 2015 Rise Set
Actual Time
Civil Twilight
Nautical Twilight
Astronomical Twilight
Moon
Length of Visible Light
Length of Day
Tomorrow will be .
, % of the Moon is Illuminated

Today's Extremes

State Highs State Lows

Community

WunderPhotos

Upload Photos

1,851,774 photos uploaded!

WunderBlogs® & News

Nearby

Air Quality

  Air Quality AQ Index Pollutant
Not available.

Snow Depth

Station Depth Elevation

Earthquake Activity

City Distance Mag. Time & Date
Minimum magnitude displayed is 2.5.

Coastal Water Temperatures

Place Temperature

Stations

Nearby Weather Stations

Station Location Temp. Windchill Dew Point Humidity Wind Precip. Elev Updated Type